Terminal Aerodrome Forecast
Issued by NWS

Home | Current Version | Previous Version | Text Only | Print | Product List | Glossary On
Versions: 1 2 3 4 5 6 7 8 9 10 11 12
094
FTUS45 KTFX 231720
TAFLWT
TAF
KLWT 231720Z 2318/2418 32013KT P6SM SCT050
     FM240100 32007KT P6SM SKC
     FM240900 VRB06KT P6SM SKC
     FM241500 17008KT P6SM SCT200=

USA.gov is the U.S. government's official web portal to all federal, state and local government web resources and services.